Terminal Aerodrome Forecast
Issued by NWS

Home | Current Version | Previous Version | Graphics & Text | Print | Product List | Glossary On
Versions: 1 2 3 4 5 6 7 8 9 10 11 12 13 14 15 16 17 18
315
FTUS43 KBIS 021420 AAA
TAFDIK
TAF AMD
KDIK 021420Z 0214/0312 17003KT P6SM SCT015 OVC070
     FM021700 25005KT 6SM BR OVC025
     FM030100 24005KT P6SM BKN100=

USA.gov is the U.S. government's official web portal to all federal, state and local government web resources and services.